Time;durP1;ratioP1;P1;durP2;ratioP2;P2;SDS_P1;SDS_P2;PMS_P1;PMS_P2;Temp;Humidity;BMP_temperature;BMP_pressure;BME280_temperature;BME280_humidity;BME280_pressure;Samples;Min_cycle;Max_cycle;Signal;HPM_P1;HPM_P2
2021/12/05 00:24:38;;;;;;;;;;;;;;;;;;2030748;29;1459;-83
2021/12/05 00:26:10;;;;;;;;;;;;;;;;;;2038135;29;1857;-82
2021/12/05 00:27:24;;;;;;;;;;;;;;;;;;2043789;29;1339;-82
2021/12/05 00:33:10;;;;;;;;;;;;;;;;;;2051930;28;1978;-84
2021/12/05 02:29:42;;;;;;;;;;;;;;;;;;2599560;22;1188;-84
2021/12/05 02:31:51;;;;;;;;;;;;;;;;;;2609232;22;1446;-83
2021/12/05 02:34:37;;;;;;;;;;;;;;;;;;2572801;22;1192;-84
2021/12/05 02:37:32;;;;;;;;;;;;;;;;;;2593166;22;1310;-83
2021/12/05 02:41:29;;;;;;;;;;;;;;;;;;2552762;23;1204;-83
2021/12/05 02:50:30;;;;;;;;;;;;;;;;;;2438443;23;1354;-84
2021/12/05 02:51:32;;;;;;;;;;;;;;;;;;2499220;23;1504;-83
2021/12/05 02:52:42;;;;;;;;;;;;;;;;;;2512385;23;1901;-83
2021/12/05 02:53:47;;;;;;;;;;;;;;;;;;2514287;23;1010;-83
2021/12/05 02:54:51;;;;;;;;;;;;;;;;;;2525490;23;1185;-83
2021/12/05 02:55:52;;;;;;;;;;;;;;;;;;2586804;22;1022;-85
2021/12/05 02:57:00;;;;;;;;;;;;;;;;;;2586665;23;1123;-84
2021/12/05 02:58:14;;;;;;;;;;;;;;;;;;2588150;22;1303;-83
2021/12/05 02:59:22;;;;;;;;;;;;;;;;;;2602370;22;1288;-84
2021/12/05 03:00:36;;;;;;;;;;;;;;;;;;2599092;22;1337;-83
2021/12/05 03:01:44;;;;;;;;;;;;;;;;;;2589804;22;1241;-82
2021/12/05 03:02:48;;;;;;;;;;;;;;;;;;2587303;22;1337;-82
2021/12/05 03:03:52;;;;;;;;;;;;;;;;;;2600306;22;826;-83
2021/12/05 03:04:56;;;;;;;;;;;;;;;;;;2613258;22;971;-83
2021/12/05 03:06:05;;;;;;;;;;;;;;;;;;2599293;22;1296;-83
2021/12/05 03:07:09;;;;;;;;;;;;;;;;;;2599459;22;1380;-83
2021/12/05 03:08:10;;;;;;;;;;;;;;;;;;2599106;22;1194;-83
2021/12/05 03:09:13;;;;;;;;;;;;;;;;;;2599738;22;775;-83
2021/12/05 03:10:15;;;;;;;;;;;;;;;;;;2599498;22;1286;-83
2021/12/05 03:11:17;;;;;;;;;;;;;;;;;;2599554;22;1344;-83
2021/12/05 03:12:19;;;;;;;;;;;;;;;;;;2586748;22;1905;-83
2021/12/05 03:13:21;;;;;;;;;;;;;;;;;;2587304;22;1321;-83
2021/12/05 03:14:24;;;;;;;;;;;;;;;;;;2587060;22;1205;-85
2021/12/05 03:15:25;;;;;;;;;;;;;;;;;;2586837;22;1329;-83
2021/12/05 03:16:29;;;;;;;;;;;;;;;;;;2599086;22;1403;-82
2021/12/05 03:17:29;;;;;;;;;;;;;;;;;;2599727;22;1305;-83
2021/12/05 03:18:31;;;;;;;;;;;;;;;;;;2599486;22;953;-83
2021/12/05 03:19:33;;;;;;;;;;;;;;;;;;2599488;22;1520;-83
2021/12/05 03:20:36;;;;;;;;;;;;;;;;;;2599106;22;1324;-83
2021/12/05 03:21:39;;;;;;;;;;;;;;;;;;2586972;22;1321;-83
2021/12/05 03:22:41;;;;;;;;;;;;;;;;;;2586902;22;1349;-83
2021/12/05 03:23:43;;;;;;;;;;;;;;;;;;2585553;22;1329;-83
2021/12/05 03:24:46;;;;;;;;;;;;;;;;;;2596848;22;914;-83
2021/12/05 03:25:46;;;;;;;;;;;;;;;;;;2596555;22;1334;-83
2021/12/05 03:26:50;;;;;;;;;;;;;;;;;;2583495;22;1218;-83
2021/12/05 03:27:53;;;;;;;;;;;;;;;;;;2596870;22;1512;-82
2021/12/05 03:28:55;;;;;;;;;;;;;;;;;;2583636;22;1223;-83
2021/12/05 03:29:58;;;;;;;;;;;;;;;;;;2584334;22;1364;-82
2021/12/05 03:31:00;;;;;;;;;;;;;;;;;;2584102;22;1206;-83
2021/12/05 03:32:02;;;;;;;;;;;;;;;;;;2583694;22;1326;-83
2021/12/05 03:33:03;;;;;;;;;;;;;;;;;;2583664;22;1940;-82
2021/12/05 03:34:06;;;;;;;;;;;;;;;;;;2583930;22;1194;-82
2021/12/05 03:35:07;;;;;;;;;;;;;;;;;;2584152;22;1241;-83
2021/12/05 03:36:10;;;;;;;;;;;;;;;;;;2583885;22;1297;-82
2021/12/05 03:37:13;;;;;;;;;;;;;;;;;;2583919;22;1231;-82
2021/12/05 03:38:16;;;;;;;;;;;;;;;;;;2583632;22;1325;-83
2021/12/05 03:39:17;;;;;;;;;;;;;;;;;;2596724;22;1073;-83
2021/12/05 03:40:20;;;;;;;;;;;;;;;;;;2596314;22;1259;-82
2021/12/05 03:41:20;;;;;;;;;;;;;;;;;;2583689;22;1197;-83
2021/12/05 03:42:23;;;;;;;;;;;;;;;;;;2596684;22;1257;-83
2021/12/05 03:43:24;;;;;;;;;;;;;;;;;;2596536;22;1283;-83
2021/12/05 03:44:27;;;;;;;;;;;;;;;;;;2583648;22;1542;-82
2021/12/05 03:45:30;;;;;;;;;;;;;;;;;;2584081;22;1170;-82
2021/12/05 03:46:33;;;;;;;;;;;;;;;;;;2583491;22;1230;-81
2021/12/05 03:47:34;;;;;;;;;;;;;;;;;;2584271;22;1202;-83
2021/12/05 03:48:38;;;;;;;;;;;;;;;;;;2583715;22;1141;-82
2021/12/05 03:49:42;;;;;;;;;;;;;;;;;;2585000;22;1309;-82
2021/12/05 03:50:43;;;;;;;;;;;;;;;;;;2583893;22;1194;-83
2021/12/05 03:51:47;;;;;;;;;;;;;;;;;;2583787;22;1151;-83
2021/12/05 03:52:50;;;;;;;;;;;;;;;;;;2596380;22;1896;-83
2021/12/05 03:53:53;;;;;;;;;;;;;;;;;;2584285;22;1417;-83
2021/12/05 03:54:53;;;;;;;;;;;;;;;;;;2596391;22;1422;-84
2021/12/05 03:55:56;;;;;;;;;;;;;;;;;;2596459;22;1564;-83
2021/12/05 03:56:59;;;;;;;;;;;;;;;;;;2583691;22;1315;-83
2021/12/05 03:58:01;;;;;;;;;;;;;;;;;;2584370;22;1366;-83
2021/12/05 03:59:04;;;;;;;;;;;;;;;;;;2596609;22;1351;-82
2021/12/05 04:00:07;;;;;;;;;;;;;;;;;;2596383;22;1151;-82
2021/12/05 04:01:24;;;;;;;;;;;;;;;;;;2599170;22;962;-83
2021/12/05 04:02:25;;;;;;;;;;;;;;;;;;2596142;22;1451;-83
2021/12/05 04:03:27;;;;;;;;;;;;;;;;;;2596792;22;1305;-83
2021/12/05 04:04:30;;;;;;;;;;;;;;;;;;2584290;22;1274;-83
2021/12/05 04:05:34;;;;;;;;;;;;;;;;;;2583711;22;1196;-83
2021/12/05 04:06:37;;;;;;;;;;;;;;;;;;2595724;22;1362;-82
2021/12/05 04:07:38;;;;;;;;;;;;;;;;;;2583854;22;1194;-83
2021/12/05 04:08:41;;;;;;;;;;;;;;;;;;2582782;23;1219;-83
2021/12/05 04:09:42;;;;;;;;;;;;;;;;;;2596409;22;1695;-83
2021/12/05 04:10:48;;;;;;;;;;;;;;;;;;2596266;22;1435;-83
2021/12/05 04:11:57;;;;;;;;;;;;;;;;;;2584458;22;1295;-82
2021/12/05 04:13:00;;;;;;;;;;;;;;;;;;2585201;22;1939;-83
2021/12/05 04:14:01;;;;;;;;;;;;;;;;;;2583849;22;1083;-83
2021/12/05 04:15:04;;;;;;;;;;;;;;;;;;2584206;22;1265;-82
2021/12/05 04:16:07;;;;;;;;;;;;;;;;;;2596343;22;1308;-83
2021/12/05 04:17:10;;;;;;;;;;;;;;;;;;2583958;22;1269;-83
2021/12/05 04:18:11;;;;;;;;;;;;;;;;;;2584145;22;1167;-83
2021/12/05 04:19:12;;;;;;;;;;;;;;;;;;2596465;22;1159;-83
2021/12/05 04:20:14;;;;;;;;;;;;;;;;;;2596020;22;1209;-83
2021/12/05 04:21:18;;;;;;;;;;;;;;;;;;2583785;22;1357;-83
2021/12/05 04:22:24;;;;;;;;;;;;;;;;;;2584405;22;1207;-85
2021/12/05 04:23:26;;;;;;;;;;;;;;;;;;2585005;22;1314;-83
2021/12/05 04:24:28;;;;;;;;;;;;;;;;;;2596227;22;1344;-83
2021/12/05 04:25:34;;;;;;;;;;;;;;;;;;2596326;22;1249;-82
2021/12/05 04:26:35;;;;;;;;;;;;;;;;;;2596089;22;1237;-83
2021/12/05 04:27:39;;;;;;;;;;;;;;;;;;2584191;22;1562;-83
2021/12/05 04:28:42;;;;;;;;;;;;;;;;;;2583800;22;1159;-83
2021/12/05 04:29:44;;;;;;;;;;;;;;;;;;2583909;22;1298;-84
2021/12/05 04:30:45;;;;;;;;;;;;;;;;;;2583568;22;1264;-83
2021/12/05 04:31:55;;;;;;;;;;;;;;;;;;2597547;22;1289;-84
2021/12/05 04:32:59;;;;;;;;;;;;;;;;;;2596211;22;1937;-84
2021/12/05 04:34:04;;;;;;;;;;;;;;;;;;2596116;22;1335;-84
2021/12/05 04:35:06;;;;;;;;;;;;;;;;;;2584845;22;1267;-83
2021/12/05 04:36:13;;;;;;;;;;;;;;;;;;2583755;22;1454;-85
2021/12/05 04:37:14;;;;;;;;;;;;;;;;;;2584277;22;1139;-83
2021/12/05 04:38:18;;;;;;;;;;;;;;;;;;2583406;23;1353;-85
2021/12/05 04:39:25;;;;;;;;;;;;;;;;;;2585386;22;1189;-85
2021/12/05 04:40:29;;;;;;;;;;;;;;;;;;2583592;22;1160;-83
2021/12/05 04:41:33;;;;;;;;;;;;;;;;;;2596787;22;792;-82
2021/12/05 04:42:35;;;;;;;;;;;;;;;;;;2596223;22;1413;-82
2021/12/05 04:43:37;;;;;;;;;;;;;;;;;;2596349;22;1264;-82
2021/12/05 04:44:39;;;;;;;;;;;;;;;;;;2596259;22;1389;-82
2021/12/05 04:45:40;;;;;;;;;;;;;;;;;;2596627;22;1288;-83
2021/12/05 04:46:45;;;;;;;;;;;;;;;;;;2595788;22;1325;-82
2021/12/05 04:47:48;;;;;;;;;;;;;;;;;;2584772;22;1194;-84
2021/12/05 04:48:55;;;;;;;;;;;;;;;;;;2583886;22;1648;-82
2021/12/05 04:49:56;;;;;;;;;;;;;;;;;;2596201;22;1381;-80
2021/12/05 04:50:59;;;;;;;;;;;;;;;;;;2596174;22;1312;-81
2021/12/05 04:52:01;;;;;;;;;;;;;;;;;;2595489;22;1378;-80
2021/12/05 04:53:03;;;;;;;;;;;;;;;;;;2595900;22;1949;-81
2021/12/05 04:54:08;;;;;;;;;;;;;;;;;;2583650;22;1232;-83
2021/12/05 04:55:10;;;;;;;;;;;;;;;;;;2597401;22;884;-82
2021/12/05 04:56:13;;;;;;;;;;;;;;;;;;2596013;22;1305;-83
2021/12/05 04:57:16;;;;;;;;;;;;;;;;;;2583727;22;1356;-81
2021/12/05 04:58:18;;;;;;;;;;;;;;;;;;2584227;22;1187;-82
2021/12/05 04:59:23;;;;;;;;;;;;;;;;;;2583474;22;1281;-83
2021/12/05 05:00:27;;;;;;;;;;;;;;;;;;2584289;22;1568;-84
2021/12/05 05:01:28;;;;;;;;;;;;;;;;;;2584304;22;1186;-83
2021/12/05 05:02:29;;;;;;;;;;;;;;;;;;2596407;22;1068;-82
2021/12/05 05:03:31;;;;;;;;;;;;;;;;;;2596177;22;1281;-83
2021/12/05 05:04:39;;;;;;;;;;;;;;;;;;2583280;22;1200;-83
2021/12/05 05:05:46;;;;;;;;;;;;;;;;;;2597943;22;1008;-82
2021/12/05 05:06:48;;;;;;;;;;;;;;;;;;2609423;22;736;-83
2021/12/05 05:07:49;;;;;;;;;;;;;;;;;;2609917;22;996;-83
2021/12/05 05:08:52;;;;;;;;;;;;;;;;;;2609767;22;803;-82
2021/12/05 05:09:54;;;;;;;;;;;;;;;;;;2609750;22;871;-83
2021/12/05 06:26:56;;;;;;;;;;;;;;;;;;2608594;22;665;-84
2021/12/05 07:48:46;;;;;;;;;;;;;;;;;;2474033;24;1355;-83
2021/12/05 07:54:25;;;;;;;;;;;;;;;;;;;;;
2021/12/05 07:56:15;;;;;;;;;;;;;;;;;;2522065;23;1076;-84
2021/12/05 08:00:51;;;;;;;;;;;;;;;;;;2519985;23;1377;-83
2021/12/05 08:16:03;;;;;;;;;;;;;;;;;;2537612;23;1210;-82
2021/12/05 08:18:23;;;;;;;;;;;;;;;;;;2506741;23;1554;-84
2021/12/05 08:21:57;;;;;;;;;;;;;;;;;;2444741;23;1360;-83
2021/12/05 10:15:15;;;;;;;;;;;;;;;;;;2467291;23;954;-83
2021/12/05 10:16:47;;;;;;;;;;;;;;;;;;2473526;23;1417;-81
2021/12/05 10:50:01;;;;;;;;;;;;;;;;;;2540958;23;1247;-83
2021/12/05 10:51:32;;;;;;;;;;;;;;;;;;2548474;23;1260;-83
2021/12/05 10:53:02;;;;;;;;;;;;;;;;;;2520367;23;1354;-84
2021/12/05 10:54:23;;;;;;;;;;;;;;;;;;2566692;22;1905;-82
2021/12/05 10:59:39;;;;;;;;;;;;;;;;;;2609726;22;1309;-83
2021/12/05 11:03:39;;;;;;;;;;;;;;;;;;2534109;23;1174;-83
2021/12/05 11:05:08;;;;;;;;;;;;;;;;;;2494839;23;1061;-82
2021/12/05 11:06:26;;;;;;;;;;;;;;;;;;2530178;23;1348;-83
2021/12/05 11:07:28;;;;;;;;;;;;;;;;;;2513997;23;1283;-85
2021/12/05 11:08:33;;;;;;;;;;;;;;;;;;2548522;22;1416;-83
2021/12/05 11:09:36;;;;;;;;;;;;;;;;;;2598717;22;870;-83
2021/12/05 11:10:41;;;;;;;;;;;;;;;;;;2596557;22;1342;-84
2021/12/05 11:11:46;;;;;;;;;;;;;;;;;;2597690;22;842;-84
2021/12/05 11:14:49;;;;;;;;;;;;;;;;;;2607915;22;966;-83
2021/12/05 11:15:53;;;;;;;;;;;;;;;;;;2597001;22;1198;-81
2021/12/05 11:22:56;;;;;;;;;;;;;;;;;;2558220;23;1328;-82
2021/12/05 11:24:28;;;;;;;;;;;;;;;;;;;;;
2021/12/05 11:32:20;;;;;;;;;;;;;;;;;;2498043;23;1018;-83
2021/12/05 11:35:29;;;;;;;;;;;;;;;;;;2552464;23;1398;-82
2021/12/05 11:36:33;;;;;;;;;;;;;;;;;;2583496;23;853;-80
2021/12/05 11:37:48;;;;;;;;;;;;;;;;;;2583678;23;1468;-82
2021/12/05 11:38:54;;;;;;;;;;;;;;;;;;2571035;23;1335;-81
2021/12/05 11:43:35;;;;;;;;;;;;;;;;;;2566642;23;1180;-82
2021/12/05 11:44:54;;;;;;;;;;;;;;;;;;2552263;23;1323;-83
2021/12/05 11:45:58;;;;;;;;;;;;;;;;;;2569794;23;1305;-81
2021/12/05 11:47:09;;;;;;;;;;;;;;;;;;2558714;23;1299;-82
2021/12/05 11:48:17;;;;;;;;;;;;;;;;;;2561459;23;1342;-81
2021/12/05 11:51:41;;;;;;;;;;;;;;;;;;2539392;23;1266;-82
2021/12/05 11:52:54;;;;;;;;;;;;;;;;;;2534036;23;1579;-82
2021/12/05 11:53:58;;;;;;;;;;;;;;;;;;2532457;23;1940;-82
2021/12/05 11:55:20;;;;;;;;;;;;;;;;;;2558317;23;1544;-83
2021/12/05 11:56:47;;;;;;;;;;;;;;;;;;2574767;23;1346;-81
2021/12/05 11:58:32;;;;;;;;;;;;;;;;;;2578605;23;1453;-82
2021/12/05 11:59:36;;;;;;;;;;;;;;;;;;2571235;23;1348;-81
2021/12/05 12:00:37;;;;;;;;;;;;;;;;;;2571247;23;958;-82
2021/12/05 12:05:08;;;;;;;;;;;;;;;;;;2584943;22;1373;-82
2021/12/05 12:06:32;;;;;;;;;;;;;;;;;;;;;
2021/12/05 12:09:41;;;;;;;;;;;;;;;;;;2602401;22;1628;-83
2021/12/05 12:15:06;;;;;;;;;;;;;;;;;;2582590;23;1916;-83
2021/12/05 12:16:33;;;;;;;;;;;;;;;;;;2590753;22;1195;-82
2021/12/05 12:17:37;;;;;;;;;;;;;;;;;;2596988;22;1585;-80
2021/12/05 12:18:48;;;;;;;;;;;;;;;;;;2597737;22;834;-80
2021/12/05 12:19:50;;;;;;;;;;;;;;;;;;2596631;22;1374;-80
2021/12/05 12:23:35;;;;;;;;;;;;;;;;;;2597445;22;1402;-81
2021/12/05 12:24:37;;;;;;;;;;;;;;;;;;2595813;22;1539;-80
2021/12/05 12:25:39;;;;;;;;;;;;;;;;;;2596295;22;1427;-80
2021/12/05 12:26:41;;;;;;;;;;;;;;;;;;2596512;22;1390;-80
2021/12/05 12:27:43;;;;;;;;;;;;;;;;;;2584455;22;1339;-80
2021/12/05 12:28:45;;;;;;;;;;;;;;;;;;2583799;22;1355;-80
2021/12/05 12:29:48;;;;;;;;;;;;;;;;;;2584745;22;1400;-81
2021/12/05 12:30:52;;;;;;;;;;;;;;;;;;2596734;22;1408;-80
2021/12/05 12:32:00;;;;;;;;;;;;;;;;;;2584433;22;1163;-80
2021/12/05 12:33:04;;;;;;;;;;;;;;;;;;2572661;23;1190;-81
2021/12/05 12:34:08;;;;;;;;;;;;;;;;;;2572877;22;1219;-79
2021/12/05 12:35:11;;;;;;;;;;;;;;;;;;2571953;23;1274;-79
2021/12/05 12:36:34;;;;;;;;;;;;;;;;;;2572587;22;1679;-84
2021/12/05 12:37:55;;;;;;;;;;;;;;;;;;2588686;22;1629;-83
2021/12/05 12:38:57;;;;;;;;;;;;;;;;;;2588398;22;1330;-82
2021/12/05 12:39:58;;;;;;;;;;;;;;;;;;2584208;22;1267;-80
2021/12/05 12:41:00;;;;;;;;;;;;;;;;;;2583811;23;1326;-84
2021/12/05 12:42:03;;;;;;;;;;;;;;;;;;2584003;22;1223;-81
2021/12/05 12:43:06;;;;;;;;;;;;;;;;;;2596969;22;1225;-80
2021/12/05 12:44:18;;;;;;;;;;;;;;;;;;2596262;22;1479;-80
2021/12/05 12:45:22;;;;;;;;;;;;;;;;;;2599192;22;950;-86
2021/12/05 12:46:25;;;;;;;;;;;;;;;;;;2610477;22;870;-87
2021/12/05 12:47:31;;;;;;;;;;;;;;;;;;2610384;22;1196;-87
2021/12/05 12:48:33;;;;;;;;;;;;;;;;;;2596997;22;1377;-80
2021/12/05 12:49:36;;;;;;;;;;;;;;;;;;2584544;22;1355;-83
2021/12/05 12:50:38;;;;;;;;;;;;;;;;;;2584748;22;1310;-84
2021/12/05 12:51:41;;;;;;;;;;;;;;;;;;2584570;22;1214;-83
2021/12/05 12:52:54;;;;;;;;;;;;;;;;;;2584264;22;1361;-81
2021/12/05 12:53:57;;;;;;;;;;;;;;;;;;2585668;22;1345;-81
2021/12/05 12:54:59;;;;;;;;;;;;;;;;;;2595489;22;1893;-82
2021/12/05 12:56:04;;;;;;;;;;;;;;;;;;2583393;23;1350;-80
2021/12/05 12:57:08;;;;;;;;;;;;;;;;;;2585473;22;760;-81
2021/12/05 12:58:10;;;;;;;;;;;;;;;;;;2583519;23;1209;-81
2021/12/05 12:59:13;;;;;;;;;;;;;;;;;;2584462;22;1168;-83
2021/12/05 13:00:15;;;;;;;;;;;;;;;;;;2596029;22;1183;-81
2021/12/05 13:01:37;;;;;;;;;;;;;;;;;;2584358;22;743;-81
2021/12/05 13:02:56;;;;;;;;;;;;;;;;;;2588261;22;1648;-83
2021/12/05 13:04:29;;;;;;;;;;;;;;;;;;2588175;22;1362;-82
2021/12/05 13:05:54;;;;;;;;;;;;;;;;;;2596692;22;1227;-81
2021/12/05 13:09:57;;;;;;;;;;;;;;;;;;2602321;22;1319;-81
2021/12/05 13:10:19;;;;;;;;;;;;;;;;;;2596631;22;1705;-82
2021/12/05 13:11:22;;;;;;;;;;;;;;;;;;2585620;22;1651;-81
2021/12/05 13:12:45;;;;;;;;;;;;;;;;;;2584639;22;1634;-81
2021/12/05 13:13:58;;;;;;;;;;;;;;;;;;2600780;22;1288;-81
2021/12/05 13:15:04;;;;;;;;;;;;;;;;;;2596685;22;1943;-81
2021/12/05 13:16:14;;;;;;;;;;;;;;;;;;2585351;22;1627;-83
2021/12/05 13:17:29;;;;;;;;;;;;;;;;;;2586033;22;1274;-85
2021/12/05 13:18:35;;;;;;;;;;;;;;;;;;2573964;23;1496;-85
2021/12/05 13:19:37;;;;;;;;;;;;;;;;;;2584307;22;1179;-83
2021/12/05 13:20:56;;;;;;;;;;;;;;;;;;2584215;22;1287;-82
2021/12/05 13:22:05;;;;;;;;;;;;;;;;;;2575182;23;1549;-82
2021/12/05 13:23:08;;;;;;;;;;;;;;;;;;2576762;22;1320;-83
2021/12/05 13:24:20;;;;;;;;;;;;;;;;;;2596631;22;1200;-82
2021/12/05 13:25:21;;;;;;;;;;;;;;;;;;2586484;22;1232;-82
2021/12/05 13:26:26;;;;;;;;;;;;;;;;;;2571478;23;1340;-81
2021/12/05 13:27:29;;;;;;;;;;;;;;;;;;2585032;22;1104;-81
2021/12/05 13:28:32;;;;;;;;;;;;;;;;;;2596918;22;1321;-82
2021/12/05 13:29:36;;;;;;;;;;;;;;;;;;2583354;22;1309;-81
2021/12/05 13:30:36;;;;;;;;;;;;;;;;;;2583398;22;1323;-81
2021/12/05 13:31:50;;;;;;;;;;;;;;;;;;2596872;22;1065;-82
2021/12/05 13:33:11;;;;;;;;;;;;;;;;;;2596843;22;1303;-80
2021/12/05 13:34:18;;;;;;;;;;;;;;;;;;2596233;22;1281;-81
2021/12/05 13:35:24;;;;;;;;;;;;;;;;;;2597548;22;1924;-82
2021/12/05 13:36:29;;;;;;;;;;;;;;;;;;2596659;22;1642;-81
2021/12/05 13:37:36;;;;;;;;;;;;;;;;;;2584705;22;1227;-82
2021/12/05 13:38:39;;;;;;;;;;;;;;;;;;2585290;22;1679;-80
2021/12/05 13:39:42;;;;;;;;;;;;;;;;;;2584743;22;1286;-83
2021/12/05 13:40:43;;;;;;;;;;;;;;;;;;2597083;22;929;-83
2021/12/05 13:41:58;;;;;;;;;;;;;;;;;;2607416;22;1374;-82
2021/12/05 13:43:05;;;;;;;;;;;;;;;;;;2596728;22;1324;-82
2021/12/05 13:44:06;;;;;;;;;;;;;;;;;;2597724;22;1303;-82
2021/12/05 13:45:10;;;;;;;;;;;;;;;;;;2596027;22;1159;-82
2021/12/05 13:46:31;;;;;;;;;;;;;;;;;;2584236;22;1267;-81
2021/12/05 13:47:34;;;;;;;;;;;;;;;;;;2588397;22;1422;-82
2021/12/05 13:48:36;;;;;;;;;;;;;;;;;;2584468;22;1334;-82
2021/12/05 13:49:38;;;;;;;;;;;;;;;;;;2583850;22;1560;-82
2021/12/05 13:50:45;;;;;;;;;;;;;;;;;;2584100;22;1281;-82
2021/12/05 13:51:46;;;;;;;;;;;;;;;;;;2585306;22;1265;-82
2021/12/05 13:52:49;;;;;;;;;;;;;;;;;;2583789;23;1313;-82
2021/12/05 13:53:52;;;;;;;;;;;;;;;;;;2597069;22;1058;-81
2021/12/05 13:54:53;;;;;;;;;;;;;;;;;;2610126;22;1900;-82
2021/12/05 13:56:04;;;;;;;;;;;;;;;;;;2610004;22;779;-82
2021/12/05 13:57:10;;;;;;;;;;;;;;;;;;2596999;22;1391;-82
2021/12/05 13:58:14;;;;;;;;;;;;;;;;;;2572396;23;1244;-82
2021/12/05 13:59:26;;;;;;;;;;;;;;;;;;2573275;22;1313;-84
2021/12/05 14:00:37;;;;;;;;;;;;;;;;;;2586156;22;1182;-83
2021/12/05 14:01:46;;;;;;;;;;;;;;;;;;2586225;22;1518;-83
2021/12/05 14:02:49;;;;;;;;;;;;;;;;;;2596338;22;1250;-83
2021/12/05 14:04:00;;;;;;;;;;;;;;;;;;2597512;22;803;-82
2021/12/05 14:05:17;;;;;;;;;;;;;;;;;;2596323;22;1371;-83
2021/12/05 14:06:39;;;;;;;;;;;;;;;;;;2585840;22;1364;-82
2021/12/05 14:07:41;;;;;;;;;;;;;;;;;;2601595;22;950;-83
2021/12/05 14:08:42;;;;;;;;;;;;;;;;;;2596379;22;1399;-82
2021/12/05 14:09:47;;;;;;;;;;;;;;;;;;2583779;23;1218;-83
2021/12/05 14:10:49;;;;;;;;;;;;;;;;;;2584528;22;1269;-83
2021/12/05 14:11:55;;;;;;;;;;;;;;;;;;2571731;23;1328;-83
2021/12/05 14:12:58;;;;;;;;;;;;;;;;;;2585189;22;1272;-81
2021/12/05 14:14:01;;;;;;;;;;;;;;;;;;2583831;22;1364;-82
2021/12/05 14:15:05;;;;;;;;;;;;;;;;;;2580929;22;1892;-82
2021/12/05 14:16:06;;;;;;;;;;;;;;;;;;2595871;22;1341;-82
2021/12/05 14:17:09;;;;;;;;;;;;;;;;;;2583373;22;1357;-82
2021/12/05 14:18:18;;;;;;;;;;;;;;;;;;2583951;22;1344;-82
2021/12/05 14:19:21;;;;;;;;;;;;;;;;;;2598346;22;802;-82
2021/12/05 14:20:25;;;;;;;;;;;;;;;;;;2609740;22;1024;-82
2021/12/05 14:21:32;;;;;;;;;;;;;;;;;;2581537;23;1337;-82
2021/12/05 14:22:37;;;;;;;;;;;;;;;;;;2584483;22;1311;-81
2021/12/05 14:23:37;;;;;;;;;;;;;;;;;;2584332;22;1299;-82
2021/12/05 14:24:41;;;;;;;;;;;;;;;;;;2582443;23;1348;-82
2021/12/05 14:25:43;;;;;;;;;;;;;;;;;;2584162;22;1215;-82
2021/12/05 14:26:46;;;;;;;;;;;;;;;;;;2583960;22;803;-81
2021/12/05 14:27:50;;;;;;;;;;;;;;;;;;2595056;22;957;-83
2021/12/05 14:29:03;;;;;;;;;;;;;;;;;;2607159;22;830;-84
2021/12/05 14:30:19;;;;;;;;;;;;;;;;;;2593148;22;1285;-86
2021/12/05 14:31:22;;;;;;;;;;;;;;;;;;2583723;22;1375;-83
2021/12/05 14:32:25;;;;;;;;;;;;;;;;;;2569943;23;1210;-83
2021/12/05 14:33:25;;;;;;;;;;;;;;;;;;2584792;22;1451;-83
2021/12/05 14:34:29;;;;;;;;;;;;;;;;;;2609036;22;712;-83
2021/12/05 14:35:32;;;;;;;;;;;;;;;;;;2596286;22;1954;-84
2021/12/05 14:36:39;;;;;;;;;;;;;;;;;;2584009;22;1243;-85
2021/12/05 14:37:43;;;;;;;;;;;;;;;;;;2585003;22;1369;-83
2021/12/05 14:38:44;;;;;;;;;;;;;;;;;;2595677;22;1144;-82
2021/12/05 14:39:47;;;;;;;;;;;;;;;;;;2583340;22;1348;-83
2021/12/05 14:40:49;;;;;;;;;;;;;;;;;;2583055;22;1316;-83
2021/12/05 14:41:52;;;;;;;;;;;;;;;;;;2596319;22;846;-84
2021/12/05 14:42:54;;;;;;;;;;;;;;;;;;2595064;22;1423;-82
2021/12/05 14:43:55;;;;;;;;;;;;;;;;;;2583555;22;1359;-83
2021/12/05 14:44:58;;;;;;;;;;;;;;;;;;2596595;22;779;-82
2021/12/05 14:46:01;;;;;;;;;;;;;;;;;;2596225;22;1245;-83
2021/12/05 14:47:05;;;;;;;;;;;;;;;;;;2583521;22;1405;-82
2021/12/05 14:48:07;;;;;;;;;;;;;;;;;;2583836;22;1336;-82
2021/12/05 14:49:09;;;;;;;;;;;;;;;;;;2584174;22;1327;-83
2021/12/05 14:50:12;;;;;;;;;;;;;;;;;;2583621;22;1389;-81
2021/12/05 14:51:13;;;;;;;;;;;;;;;;;;2596559;22;1416;-82
2021/12/05 14:52:16;;;;;;;;;;;;;;;;;;2583547;23;1709;-81
2021/12/05 14:53:22;;;;;;;;;;;;;;;;;;2597384;22;810;-81
2021/12/05 14:54:29;;;;;;;;;;;;;;;;;;2595902;22;1231;-81
2021/12/05 14:55:33;;;;;;;;;;;;;;;;;;2584285;22;2012;-81
2021/12/05 14:56:35;;;;;;;;;;;;;;;;;;2583699;22;1231;-82
2021/12/05 14:57:40;;;;;;;;;;;;;;;;;;2571214;23;1219;-83
2021/12/05 14:58:42;;;;;;;;;;;;;;;;;;2572617;22;1297;-83
2021/12/05 14:59:46;;;;;;;;;;;;;;;;;;2595424;22;1352;-83
2021/12/05 15:00:49;;;;;;;;;;;;;;;;;;2583241;22;1431;-82
2021/12/05 15:01:53;;;;;;;;;;;;;;;;;;2584107;22;1454;-82
2021/12/05 15:02:59;;;;;;;;;;;;;;;;;;2583615;22;1383;-81
2021/12/05 15:04:02;;;;;;;;;;;;;;;;;;2584777;22;1324;-82
2021/12/05 15:05:04;;;;;;;;;;;;;;;;;;2571651;23;1228;-85
2021/12/05 15:06:07;;;;;;;;;;;;;;;;;;2571810;22;1274;-81
2021/12/05 15:07:09;;;;;;;;;;;;;;;;;;2583929;22;1619;-80
2021/12/05 15:08:11;;;;;;;;;;;;;;;;;;2580716;22;1210;-81
2021/12/05 15:09:21;;;;;;;;;;;;;;;;;;2582542;22;1464;-81
2021/12/05 15:10:23;;;;;;;;;;;;;;;;;;2595713;22;708;-83
2021/12/05 15:11:24;;;;;;;;;;;;;;;;;;2594692;22;1352;-83
2021/12/05 15:12:27;;;;;;;;;;;;;;;;;;2596207;22;815;-82
2021/12/05 15:13:27;;;;;;;;;;;;;;;;;;2596011;22;1312;-81
2021/12/05 15:14:30;;;;;;;;;;;;;;;;;;2595641;22;955;-81
2021/12/05 15:15:32;;;;;;;;;;;;;;;;;;2595942;22;1909;-80
2021/12/05 15:16:32;;;;;;;;;;;;;;;;;;2596296;22;740;-85
2021/12/05 15:17:35;;;;;;;;;;;;;;;;;;2596312;22;1166;-82
2021/12/05 15:18:39;;;;;;;;;;;;;;;;;;2596794;22;1032;-84
2021/12/05 15:19:42;;;;;;;;;;;;;;;;;;2596637;22;1416;-83
2021/12/05 15:20:46;;;;;;;;;;;;;;;;;;2571802;23;1428;-82
2021/12/05 15:21:47;;;;;;;;;;;;;;;;;;2585418;22;1394;-81
2021/12/05 15:22:50;;;;;;;;;;;;;;;;;;2596570;22;1357;-82
2021/12/05 15:23:51;;;;;;;;;;;;;;;;;;2597298;22;1190;-81
2021/12/05 15:24:58;;;;;;;;;;;;;;;;;;2597122;22;1182;-81
2021/12/05 15:26:00;;;;;;;;;;;;;;;;;;2597069;22;1232;-80
2021/12/05 15:27:03;;;;;;;;;;;;;;;;;;2585185;22;1210;-82
2021/12/05 15:28:05;;;;;;;;;;;;;;;;;;2584444;22;1221;-83
2021/12/05 15:29:07;;;;;;;;;;;;;;;;;;2597801;22;1250;-83
2021/12/05 15:30:13;;;;;;;;;;;;;;;;;;2609882;22;907;-81
2021/12/05 15:31:13;;;;;;;;;;;;;;;;;;2596809;22;1301;-82
2021/12/05 15:32:16;;;;;;;;;;;;;;;;;;2584392;23;1244;-81
2021/12/05 15:33:19;;;;;;;;;;;;;;;;;;2585132;22;1255;-82
2021/12/05 15:34:22;;;;;;;;;;;;;;;;;;2596753;22;1288;-82
2021/12/05 15:35:25;;;;;;;;;;;;;;;;;;2597256;22;1909;-81
2021/12/05 15:36:29;;;;;;;;;;;;;;;;;;2596746;22;1499;-81
2021/12/05 15:37:32;;;;;;;;;;;;;;;;;;2584640;22;1252;-81
2021/12/05 15:38:34;;;;;;;;;;;;;;;;;;2572233;23;1148;-87
2021/12/05 15:39:38;;;;;;;;;;;;;;;;;;2571359;22;1282;-84
2021/12/05 15:40:43;;;;;;;;;;;;;;;;;;2584225;22;1382;-82
2021/12/05 15:41:44;;;;;;;;;;;;;;;;;;2584265;22;1392;-82
2021/12/05 15:42:48;;;;;;;;;;;;;;;;;;2570808;23;1301;-83
2021/12/05 15:43:49;;;;;;;;;;;;;;;;;;2572143;22;1342;-84
2021/12/05 15:44:53;;;;;;;;;;;;;;;;;;2595493;22;746;-82
2021/12/05 15:45:56;;;;;;;;;;;;;;;;;;2595325;22;1187;-82
2021/12/05 15:47:06;;;;;;;;;;;;;;;;;;2569397;23;1522;-83
2021/12/05 15:48:10;;;;;;;;;;;;;;;;;;2587282;22;1222;-84
2021/12/05 15:49:10;;;;;;;;;;;;;;;;;;2607958;22;1292;-83
2021/12/05 15:50:14;;;;;;;;;;;;;;;;;;2595906;22;1246;-82
2021/12/05 15:51:16;;;;;;;;;;;;;;;;;;2595529;22;1381;-84
2021/12/05 15:52:20;;;;;;;;;;;;;;;;;;2583264;23;1325;-83
2021/12/05 15:53:23;;;;;;;;;;;;;;;;;;2572817;22;1308;-81
2021/12/05 15:54:24;;;;;;;;;;;;;;;;;;2596158;22;874;-84
2021/12/05 15:55:27;;;;;;;;;;;;;;;;;;2583621;23;1176;-83
2021/12/05 15:56:30;;;;;;;;;;;;;;;;;;2584163;22;827;-83
2021/12/05 15:57:33;;;;;;;;;;;;;;;;;;2596051;22;1490;-82
2021/12/05 15:58:40;;;;;;;;;;;;;;;;;;2596104;22;1499;-84
2021/12/05 15:59:43;;;;;;;;;;;;;;;;;;2595691;22;1414;-81
2021/12/05 16:00:47;;;;;;;;;;;;;;;;;;2583567;22;1187;-82
2021/12/05 16:01:49;;;;;;;;;;;;;;;;;;2583918;22;1407;-82
2021/12/05 16:02:57;;;;;;;;;;;;;;;;;;2584131;22;1420;-85
2021/12/05 16:04:00;;;;;;;;;;;;;;;;;;2584697;22;1396;-85
2021/12/05 16:05:02;;;;;;;;;;;;;;;;;;2583794;22;1147;-84
2021/12/05 16:06:04;;;;;;;;;;;;;;;;;;2582969;22;1313;-86
2021/12/05 16:07:10;;;;;;;;;;;;;;;;;;2583425;22;1263;-84
2021/12/05 16:08:12;;;;;;;;;;;;;;;;;;2583720;22;1475;-85
2021/12/05 16:09:14;;;;;;;;;;;;;;;;;;2583104;22;1228;-83
2021/12/05 16:10:18;;;;;;;;;;;;;;;;;;2582693;22;1308;-84
2021/12/05 16:11:20;;;;;;;;;;;;;;;;;;2594849;22;1333;-82
2021/12/05 16:12:23;;;;;;;;;;;;;;;;;;2583026;22;1266;-83
2021/12/05 16:13:25;;;;;;;;;;;;;;;;;;2596485;22;772;-81
2021/12/05 16:14:27;;;;;;;;;;;;;;;;;;2609153;22;870;-82
2021/12/05 16:15:29;;;;;;;;;;;;;;;;;;2596218;22;1669;-82
2021/12/05 16:16:30;;;;;;;;;;;;;;;;;;2595952;22;1862;-83
2021/12/05 16:17:31;;;;;;;;;;;;;;;;;;2595899;22;1453;-82
2021/12/05 16:18:34;;;;;;;;;;;;;;;;;;2596128;22;880;-84
2021/12/05 16:19:36;;;;;;;;;;;;;;;;;;2609640;22;759;-82
2021/12/05 16:20:40;;;;;;;;;;;;;;;;;;2595928;22;1309;-81
2021/12/05 16:21:42;;;;;;;;;;;;;;;;;;2583566;22;1287;-85
2021/12/05 16:23:10;;;;;;;;;;;;;;;;;;2596121;22;899;-82
2021/12/05 16:24:14;;;;;;;;;;;;;;;;;;2595423;22;1334;-81
2021/12/05 16:25:15;;;;;;;;;;;;;;;;;;2596937;22;889;-81
2021/12/05 16:26:20;;;;;;;;;;;;;;;;;;2609354;22;930;-82
2021/12/05 16:27:22;;;;;;;;;;;;;;;;;;2595941;22;1248;-82